createdAt,value
2023-01-25T00:00:53.985Z,68.43
2023-01-25T00:03:23.217Z,57.58
2023-01-25T00:06:02.452Z,49.97
2023-01-25T00:08:31.711Z,47.53
2023-01-25T00:11:00.876Z,50.85
2023-01-25T00:13:29.940Z,47.47
2023-01-25T00:16:06.720Z,57.88
2023-01-25T00:18:35.881Z,51.70
2023-01-25T00:21:35.242Z,52.38
2023-01-25T00:24:05.925Z,44.20
2023-01-25T00:26:36.796Z,52.22
2023-01-25T00:29:06.644Z,139.90
2023-01-25T00:31:35.877Z,136.30
2023-01-25T00:34:26.375Z,68.47
2023-01-25T00:37:19.570Z,62.58
2023-01-25T00:39:49.074Z,54.80
2023-01-25T00:42:20.556Z,57.38
2023-01-25T00:44:50.935Z,48.05
2023-01-25T00:47:20.272Z,56.05
2023-01-25T00:49:49.564Z,62.00
2023-01-25T00:52:19.176Z,42.95
2023-01-25T00:54:48.290Z,48.17
2023-01-25T00:57:17.397Z,37.35
2023-01-25T00:59:48.414Z,44.22
2023-01-25T01:02:17.560Z,48.90
2023-01-25T01:04:46.997Z,43.60
2023-01-25T01:07:17.079Z,49.22
2023-01-25T01:09:46.237Z,50.67
2023-01-25T01:12:15.439Z,43.20
2023-01-25T01:14:44.522Z,47.17
2023-01-25T01:17:14.149Z,38.42
2023-01-25T01:19:43.376Z,40.90
2023-01-25T01:22:13.069Z,44.85
2023-01-25T01:24:43.312Z,37.80
2023-01-25T01:27:12.465Z,37.83
2023-01-25T01:29:41.675Z,49.03
2023-01-25T01:32:10.952Z,40.58
2023-01-25T01:34:40.136Z,34.78
2023-01-25T01:37:09.313Z,28.25
2023-01-25T01:39:38.470Z,29.75
2023-01-25T01:42:07.596Z,33.97
2023-01-25T01:44:54.432Z,29.75
2023-01-25T01:47:46.796Z,33.15
2023-01-25T01:50:25.822Z,32.65
2023-01-25T01:52:54.975Z,34.03
2023-01-25T01:55:26.250Z,31.67
2023-01-25T01:58:00.716Z,37.28
2023-01-25T02:00:38.320Z,29.95
2023-01-25T02:03:08.084Z,36.33
2023-01-25T02:05:58.726Z,28.70
2023-01-25T02:08:31.868Z,27.08
2023-01-25T02:11:03.158Z,34.05
2023-01-25T02:13:33.572Z,32.78
2023-01-25T02:16:03.513Z,27.30
2023-01-25T02:18:35.102Z,28.23
2023-01-25T02:21:04.371Z,33.88
2023-01-25T02:23:42.017Z,29.02
2023-01-25T02:26:12.502Z,28.23
2023-01-25T02:29:17.950Z,32.05
2023-01-25T02:31:50.557Z,19.95
2023-01-25T02:34:20.505Z,26.55
2023-01-25T02:36:52.573Z,33.20
2023-01-25T02:39:22.292Z,27.23
2023-01-25T02:41:51.512Z,30.02
2023-01-25T02:44:27.379Z,29.92
2023-01-25T02:46:57.320Z,27.20
2023-01-25T02:49:26.849Z,22.58
2023-01-25T02:52:01.204Z,30.17
2023-01-25T02:54:30.490Z,31.25
2023-01-25T02:57:00.159Z,29.40
2023-01-25T02:59:29.498Z,31.13
2023-01-25T03:01:58.973Z,30.17
2023-01-25T03:04:28.373Z,29.35
2023-01-25T03:06:57.780Z,30.17
2023-01-25T03:09:26.996Z,28.58
2023-01-25T03:11:56.207Z,29.90
2023-01-25T03:14:25.417Z,25.63
2023-01-25T03:16:54.867Z,30.52
2023-01-25T03:19:24.096Z,36.28
2023-01-25T03:21:53.320Z,30.50
2023-01-25T03:24:22.614Z,40.20
2023-01-25T03:27:10.051Z,25.30
2023-01-25T03:29:40.029Z,32.00
2023-01-25T03:32:10.042Z,36.03
2023-01-25T03:34:39.427Z,26.48
2023-01-25T03:37:08.680Z,38.08
2023-01-25T03:39:38.052Z,28.80
2023-01-25T03:42:07.467Z,30.85
2023-01-25T03:44:36.694Z,29.92
2023-01-25T03:47:06.095Z,30.25
2023-01-25T03:49:35.382Z,32.67
2023-01-25T03:52:04.761Z,27.88
2023-01-25T03:54:34.156Z,37.67
2023-01-25T03:57:03.379Z,26.58
2023-01-25T03:59:32.559Z,24.27
2023-01-25T04:02:01.897Z,29.73
2023-01-25T04:04:31.251Z,32.95
2023-01-25T04:07:00.468Z,47.90
2023-01-25T04:09:29.765Z,22.85
2023-01-25T04:11:58.965Z,28.58
2023-01-25T04:14:43.288Z,28.02
2023-01-25T04:17:14.006Z,33.03
2023-01-25T04:19:43.263Z,27.65
2023-01-25T04:22:13.841Z,32.15
2023-01-25T04:24:43.253Z,26.30
2023-01-25T04:27:12.863Z,22.30
2023-01-25T04:29:42.237Z,23.73
2023-01-25T04:32:11.773Z,25.88
2023-01-25T04:34:41.201Z,25.00
2023-01-25T04:37:10.348Z,40.00
2023-01-25T04:39:39.603Z,30.42
2023-01-25T04:42:08.823Z,24.92
2023-01-25T04:44:38.039Z,28.27
2023-01-25T04:47:07.269Z,25.67
2023-01-25T04:49:36.485Z,25.67
2023-01-25T04:52:06.090Z,22.65
2023-01-25T04:54:35.295Z,59.60
2023-01-25T04:57:04.869Z,20.23
2023-01-25T04:59:34.271Z,20.85
2023-01-25T05:02:03.565Z,19.67
2023-01-25T05:04:32.823Z,21.98
2023-01-25T05:07:02.158Z,23.45
2023-01-25T05:09:31.754Z,21.08
2023-01-25T05:12:01.079Z,19.33
2023-01-25T05:14:30.406Z,24.42
2023-01-25T05:16:59.741Z,21.60
2023-01-25T05:19:30.072Z,21.95
2023-01-25T05:21:59.284Z,17.20
2023-01-25T05:24:35.223Z,17.45
2023-01-25T05:27:05.698Z,19.27
2023-01-25T05:29:41.507Z,26.40
2023-01-25T05:32:23.902Z,19.27
2023-01-25T05:34:53.615Z,17.38
2023-01-25T05:37:23.747Z,18.70
2023-01-25T05:39:52.935Z,22.67
2023-01-25T05:42:22.398Z,20.13
2023-01-25T05:44:51.768Z,17.45
2023-01-25T05:47:22.055Z,22.88
2023-01-25T05:49:51.252Z,20.77
2023-01-25T05:52:20.450Z,23.63
2023-01-25T05:54:51.012Z,22.33
2023-01-25T05:57:20.198Z,20.73
2023-01-25T05:59:49.520Z,18.08
2023-01-25T06:02:18.857Z,18.92
2023-01-25T06:04:48.175Z,17.42
2023-01-25T06:07:17.496Z,16.13
2023-01-25T06:09:46.724Z,18.88
2023-01-25T06:12:17.128Z,17.60
2023-01-25T06:14:48.244Z,18.98
2023-01-25T06:17:17.804Z,19.90
2023-01-25T06:19:48.241Z,16.83
2023-01-25T06:22:17.521Z,18.35
2023-01-25T06:24:46.756Z,23.45
2023-01-25T06:27:16.108Z,22.15
2023-01-25T06:29:45.385Z,22.70
2023-01-25T06:32:14.673Z,24.75
2023-01-25T06:34:43.910Z,20.58
2023-01-25T06:37:13.202Z,20.02
2023-01-25T06:39:42.393Z,19.60
2023-01-25T06:42:11.789Z,19.00
2023-01-25T06:44:41.043Z,21.45
2023-01-25T06:47:13.685Z,17.85
2023-01-25T06:49:43.093Z,16.67
2023-01-25T06:52:12.354Z,23.10
2023-01-25T06:54:42.163Z,19.67
2023-01-25T06:57:13.059Z,20.90
2023-01-25T06:59:42.273Z,33.60
2023-01-25T07:02:17.558Z,22.48
2023-01-25T07:04:46.711Z,21.27
2023-01-25T07:07:16.064Z,22.33
2023-01-25T07:09:45.383Z,20.75
2023-01-25T07:12:14.574Z,19.65
2023-01-25T07:14:43.808Z,18.15
2023-01-25T07:17:13.018Z,25.30
2023-01-25T07:19:42.178Z,26.85
2023-01-25T07:22:11.462Z,24.27
2023-01-25T07:24:40.680Z,30.63
2023-01-25T07:27:09.977Z,20.00
2023-01-25T07:29:39.188Z,16.25
2023-01-25T07:32:08.427Z,18.85
2023-01-25T07:34:37.678Z,18.15
2023-01-25T07:37:07.098Z,20.13
2023-01-25T07:39:36.966Z,18.67
2023-01-25T07:42:06.531Z,19.00
2023-01-25T07:44:35.784Z,24.23
2023-01-25T07:47:05.232Z,32.40
2023-01-25T07:49:34.673Z,22.95
2023-01-25T07:52:03.955Z,21.00
2023-01-25T07:54:33.280Z,22.92
2023-01-25T07:57:02.473Z,21.42
2023-01-25T07:59:33.017Z,22.52
2023-01-25T08:02:02.231Z,17.50
2023-01-25T08:04:31.540Z,19.88
2023-01-25T08:07:00.724Z,15.70
2023-01-25T08:09:29.965Z,23.40
2023-01-25T08:11:59.275Z,20.52
2023-01-25T08:14:28.518Z,27.13
2023-01-25T08:16:58.225Z,19.85
2023-01-25T08:19:27.753Z,22.08
2023-01-25T08:21:56.948Z,21.05
2023-01-25T08:24:26.196Z,21.13
2023-01-25T08:26:55.532Z,21.33
2023-01-25T08:29:25.122Z,23.90
2023-01-25T08:31:54.312Z,19.10
2023-01-25T08:34:23.679Z,22.48
2023-01-25T08:36:52.957Z,19.58
2023-01-25T08:39:22.218Z,20.42
2023-01-25T08:41:51.422Z,23.70
2023-01-25T08:44:25.075Z,18.77
2023-01-25T08:46:54.797Z,19.70
2023-01-25T08:49:24.141Z,19.45
2023-01-25T08:51:53.893Z,28.15
2023-01-25T08:54:23.324Z,28.50
2023-01-25T08:56:52.982Z,29.80
2023-01-25T08:59:22.175Z,21.83
2023-01-25T09:01:51.530Z,33.20
2023-01-25T09:04:20.943Z,29.25
2023-01-25T09:06:50.124Z,25.27
2023-01-25T09:09:19.434Z,26.73
2023-01-25T09:11:48.628Z,19.75
2023-01-25T09:14:17.875Z,22.77
2023-01-25T09:16:47.681Z,22.73
2023-01-25T09:19:16.977Z,20.17
2023-01-25T09:21:46.170Z,19.83
2023-01-25T09:24:15.715Z,27.92
2023-01-25T09:26:55.941Z,19.98
2023-01-25T09:29:28.789Z,27.23
2023-01-25T09:31:57.936Z,20.10
2023-01-25T09:34:27.075Z,21.30
2023-01-25T09:36:56.183Z,23.98
2023-01-25T09:39:25.396Z,18.98
2023-01-25T09:42:41.922Z,20.55
2023-01-25T09:45:35.126Z,36.45
2023-01-25T09:48:35.594Z,26.55
2023-01-25T09:51:16.530Z,25.65
2023-01-25T09:53:53.599Z,27.50
2023-01-25T09:56:33.923Z,21.67
2023-01-25T09:59:17.145Z,24.25
2023-01-25T10:02:18.636Z,23.60
2023-01-25T10:04:52.847Z,23.42
2023-01-25T10:07:26.474Z,25.13
2023-01-25T10:10:34.132Z,21.55
2023-01-25T10:13:06.874Z,18.90
2023-01-25T10:15:49.270Z,20.67
2023-01-25T10:18:24.602Z,23.85
2023-01-25T10:20:59.696Z,27.73
2023-01-25T10:23:47.246Z,21.95
2023-01-25T10:26:34.110Z,29.30
2023-01-25T10:29:14.895Z,20.88
2023-01-25T10:31:51.957Z,20.75
2023-01-25T10:34:57.064Z,31.85
2023-01-25T10:37:33.970Z,17.63
2023-01-25T10:40:24.784Z,17.58
2023-01-25T10:43:07.938Z,26.92
2023-01-25T10:45:37.086Z,25.08
2023-01-25T10:48:13.623Z,33.55
2023-01-25T10:50:48.741Z,21.70
2023-01-25T10:53:35.259Z,21.55
2023-01-25T10:56:22.414Z,19.58
2023-01-25T10:59:06.418Z,29.75
2023-01-25T11:01:38.479Z,29.88
2023-01-25T11:04:29.928Z,29.63
2023-01-25T11:07:00.264Z,26.83
2023-01-25T11:09:38.988Z,39.88
2023-01-25T11:12:23.139Z,27.58
2023-01-25T11:14:52.830Z,33.10
2023-01-25T11:17:32.967Z,27.83
2023-01-25T11:20:22.095Z,44.25
2023-01-25T11:22:58.519Z,44.03
2023-01-25T11:25:34.866Z,45.90
2023-01-25T11:28:27.129Z,39.50
2023-01-25T11:30:56.245Z,55.05
2023-01-25T11:33:27.981Z,47.08
2023-01-25T11:36:32.545Z,44.42
2023-01-25T11:39:13.283Z,45.78
2023-01-25T11:42:23.307Z,40.17
2023-01-25T11:44:55.340Z,32.03
2023-01-25T11:48:07.337Z,43.95
2023-01-25T11:51:14.986Z,46.45
2023-01-25T11:54:31.341Z,45.90
2023-01-25T11:57:11.218Z,180.63
2023-01-25T12:00:24.995Z,50.15
2023-01-25T12:03:35.324Z,40.92
2023-01-25T12:06:55.632Z,38.35
2023-01-25T12:09:35.174Z,44.08
2023-01-25T12:12:35.270Z,45.25
2023-01-25T12:15:27.070Z,61.28
2023-01-25T12:18:16.701Z,51.17
2023-01-25T12:21:08.350Z,40.67
2023-01-25T12:24:00.651Z,39.20
2023-01-25T12:26:51.006Z,53.17
2023-01-25T12:29:47.628Z,62.55
2023-01-25T12:32:26.172Z,72.22
2023-01-25T12:39:07.339Z,61.58
2023-01-25T12:42:17.340Z,55.53
2023-01-25T12:45:11.788Z,58.75
2023-01-25T12:48:05.702Z,65.43
2023-01-25T12:50:58.050Z,74.88
2023-01-25T12:53:43.519Z,76.78
2023-01-25T12:56:47.338Z,69.50
2023-01-25T12:59:55.639Z,70.50
2023-01-25T13:05:38.767Z,67.30
2023-01-25T13:08:39.445Z,72.20
2023-01-25T13:11:28.754Z,74.32
2023-01-25T13:14:17.750Z,63.40
2023-01-25T13:17:09.375Z,54.15
2023-01-25T13:19:44.643Z,67.85
2023-01-25T13:22:17.400Z,72.88
2023-01-25T13:25:07.709Z,78.50
2023-01-25T13:27:37.673Z,79.00
2023-01-25T13:30:35.658Z,80.72
2023-01-25T13:33:08.252Z,77.65
2023-01-25T13:35:43.686Z,73.25
2023-01-25T13:38:34.668Z,99.20
2023-01-25T13:41:17.742Z,70.07
2023-01-25T13:43:53.455Z,61.85
2023-01-25T13:46:27.504Z,95.10
2023-01-25T13:49:05.142Z,77.40
2023-01-25T13:51:40.337Z,94.47
2023-01-25T13:54:18.211Z,59.65
2023-01-25T13:56:47.759Z,60.25
2023-01-25T13:59:28.651Z,63.50
2023-01-25T14:02:00.612Z,53.08
2023-01-25T14:04:34.349Z,46.85
2023-01-25T14:07:10.909Z,41.40
2023-01-25T14:09:44.101Z,65.00
2023-01-25T14:12:24.816Z,46.33
2023-01-25T14:14:54.140Z,76.63
2023-01-25T14:17:25.953Z,48.10
2023-01-25T14:19:57.621Z,63.17
2023-01-25T14:22:30.437Z,46.95
2023-01-25T14:25:20.201Z,42.70
2023-01-25T14:28:00.239Z,40.38
2023-01-25T14:30:33.294Z,44.80
2023-01-25T14:33:30.685Z,48.75
2023-01-25T14:36:24.595Z,44.55
2023-01-25T14:38:55.342Z,41.65
2023-01-25T14:41:31.671Z,56.28
2023-01-25T14:44:12.381Z,46.47
2023-01-25T14:46:43.419Z,47.25
2023-01-25T14:49:15.294Z,56.63
2023-01-25T14:52:00.484Z,62.88
2023-01-25T14:54:34.347Z,65.28
2023-01-25T14:57:09.421Z,52.85
2023-01-25T14:59:45.244Z,60.72
2023-01-25T15:02:17.199Z,53.78
2023-01-25T15:05:17.526Z,48.03
2023-01-25T15:07:59.188Z,62.28
2023-01-25T15:10:34.468Z,66.50
2023-01-25T15:13:30.620Z,70.18
2023-01-25T15:16:06.779Z,66.85
2023-01-25T15:18:53.846Z,84.93
2023-01-25T15:21:34.731Z,79.03
2023-01-25T15:24:13.540Z,106.45
2023-01-25T15:26:42.839Z,101.57
2023-01-25T15:29:22.958Z,110.95
2023-01-25T15:31:53.976Z,96.60
2023-01-25T15:34:36.121Z,77.18
2023-01-25T15:37:05.376Z,83.45
2023-01-25T15:39:35.951Z,96.47
2023-01-25T15:42:05.432Z,86.85
2023-01-25T15:44:34.597Z,98.00
2023-01-25T15:47:03.794Z,98.25
2023-01-25T15:49:33.672Z,88.03
2023-01-25T15:52:02.862Z,80.78
2023-01-25T15:54:32.087Z,103.35
2023-01-25T15:57:01.958Z,110.75
2023-01-25T15:59:31.217Z,126.72
2023-01-25T16:02:00.449Z,97.80
2023-01-25T16:04:29.711Z,107.53
2023-01-25T16:06:59.663Z,96.13
2023-01-25T16:09:31.943Z,87.82
2023-01-25T16:12:03.428Z,90.18
2023-01-25T16:14:32.745Z,88.03
2023-01-25T16:17:06.412Z,88.88
2023-01-25T16:19:35.921Z,77.90
2023-01-25T16:22:05.140Z,157.85
2023-01-25T16:24:34.308Z,70.20
2023-01-25T16:27:03.805Z,78.22
2023-01-25T16:29:33.047Z,54.67
2023-01-25T16:32:02.279Z,49.85
2023-01-25T16:34:31.591Z,60.22
2023-01-25T16:37:02.700Z,58.53
2023-01-25T16:39:35.187Z,64.63
2023-01-25T16:42:04.358Z,58.25
2023-01-25T16:44:33.527Z,62.65
2023-01-25T16:47:03.138Z,69.15
2023-01-25T16:49:34.418Z,59.25
2023-01-25T16:52:07.170Z,57.00
2023-01-25T16:54:36.362Z,60.15
2023-01-25T16:57:15.058Z,60.05
2023-01-25T16:59:48.930Z,55.75
2023-01-25T17:02:18.002Z,65.30
2023-01-25T17:04:47.214Z,100.28
2023-01-25T17:07:16.736Z,84.00
2023-01-25T17:09:45.986Z,78.63
2023-01-25T17:12:15.414Z,68.22
2023-01-25T17:14:44.692Z,66.45
2023-01-25T17:17:13.864Z,65.00
2023-01-25T17:19:43.411Z,63.75
2023-01-25T17:22:13.042Z,64.50
2023-01-25T17:24:42.810Z,57.97
2023-01-25T17:27:12.663Z,62.15
2023-01-25T17:29:41.998Z,59.03
2023-01-25T17:32:11.271Z,60.30
2023-01-25T17:34:40.679Z,54.03
2023-01-25T17:37:09.855Z,61.30
2023-01-25T17:39:39.092Z,47.40
2023-01-25T17:42:10.041Z,56.70
2023-01-25T17:44:39.261Z,54.30
2023-01-25T17:47:08.413Z,58.40
2023-01-25T17:49:37.627Z,68.45
2023-01-25T17:52:06.933Z,52.80
2023-01-25T17:54:37.270Z,48.13
2023-01-25T17:57:06.481Z,55.25
2023-01-25T17:59:35.690Z,49.25
2023-01-25T18:02:05.021Z,50.15
2023-01-25T18:04:36.095Z,57.78
2023-01-25T18:07:05.254Z,60.42
2023-01-25T18:09:36.712Z,56.17
2023-01-25T18:12:06.441Z,61.72
2023-01-25T18:14:36.063Z,64.20
2023-01-25T18:17:05.393Z,61.17
2023-01-25T18:19:34.971Z,60.75
2023-01-25T18:22:04.411Z,62.60
2023-01-25T18:24:38.088Z,53.65
2023-01-25T18:27:18.716Z,59.05
2023-01-25T18:30:22.537Z,60.78
2023-01-25T18:32:51.745Z,60.97
2023-01-25T18:35:21.160Z,61.75
2023-01-25T18:37:50.373Z,54.08
2023-01-25T18:40:20.830Z,68.13
2023-01-25T18:42:50.717Z,61.03
2023-01-25T18:45:20.354Z,61.40
2023-01-25T18:47:49.555Z,53.90
2023-01-25T18:50:18.961Z,56.00
2023-01-25T18:52:48.735Z,55.58
2023-01-25T18:55:18.065Z,57.75
2023-01-25T18:57:47.273Z,55.13
2023-01-25T19:00:19.675Z,55.67
2023-01-25T19:02:48.872Z,51.08
2023-01-25T19:05:20.933Z,51.90
2023-01-25T19:07:50.095Z,52.45
2023-01-25T19:10:20.040Z,55.53
2023-01-25T19:12:49.322Z,58.97
2023-01-25T19:15:18.625Z,54.85
2023-01-25T19:17:47.822Z,47.72
2023-01-25T19:20:20.546Z,57.28
2023-01-25T19:22:49.788Z,57.67
2023-01-25T19:25:19.144Z,56.78
2023-01-25T19:27:48.447Z,52.45
2023-01-25T19:30:17.782Z,62.40
2023-01-25T19:32:46.999Z,49.38
2023-01-25T19:35:16.272Z,53.50
2023-01-25T19:37:45.453Z,56.55
2023-01-25T19:40:15.621Z,52.35
2023-01-25T19:42:44.854Z,55.72
2023-01-25T19:45:14.234Z,48.55
2023-01-25T19:47:43.519Z,53.63
2023-01-25T19:50:13.468Z,55.05
2023-01-25T19:52:42.676Z,56.63
2023-01-25T19:55:12.254Z,46.88
2023-01-25T19:57:41.555Z,48.65
2023-01-25T20:00:12.635Z,64.68
2023-01-25T20:02:42.751Z,53.25
2023-01-25T20:05:12.342Z,46.90
2023-01-25T20:07:42.460Z,51.70
2023-01-25T20:10:12.895Z,45.83
2023-01-25T20:12:42.119Z,46.05
2023-01-25T20:15:14.228Z,49.03
2023-01-25T20:17:44.558Z,51.70
2023-01-25T20:20:14.866Z,45.85
2023-01-25T20:22:44.090Z,50.50
2023-01-25T20:25:13.324Z,59.72
2023-01-25T20:27:42.511Z,56.20
2023-01-25T20:30:12.859Z,59.85
2023-01-25T20:32:42.066Z,56.90
2023-01-25T20:35:11.795Z,61.92
2023-01-25T20:37:41.081Z,63.45
2023-01-25T20:40:11.232Z,59.78
2023-01-25T20:42:40.538Z,55.75
2023-01-25T20:45:13.264Z,55.47
2023-01-25T20:47:42.447Z,50.65
2023-01-25T20:50:12.675Z,76.70
2023-01-25T20:52:41.866Z,55.72
2023-01-25T20:55:11.713Z,54.60
2023-01-25T20:57:41.968Z,61.75
2023-01-25T21:00:12.348Z,80.20
2023-01-25T21:02:41.599Z,56.58
2023-01-25T21:05:11.525Z,67.72
2023-01-25T21:07:40.780Z,67.13
2023-01-25T21:10:11.128Z,69.38
2023-01-25T21:12:40.844Z,87.57
2023-01-25T21:15:11.663Z,75.82
2023-01-25T21:17:41.019Z,83.70
2023-01-25T21:20:11.956Z,71.10
2023-01-25T21:22:41.240Z,71.47
2023-01-25T21:25:13.543Z,62.95
2023-01-25T21:27:42.765Z,71.43
2023-01-25T21:30:13.160Z,56.97
2023-01-25T21:32:44.067Z,66.57
2023-01-25T21:35:13.231Z,73.25
2023-01-25T21:37:42.657Z,68.65
2023-01-25T21:40:13.551Z,62.28
2023-01-25T21:42:42.815Z,69.20
2023-01-25T21:45:31.412Z,74.15
2023-01-25T21:50:48.702Z,91.47
2023-01-25T21:53:17.878Z,84.25
2023-01-25T21:55:47.021Z,86.43
2023-01-25T21:58:19.661Z,92.50
2023-01-25T22:00:48.815Z,92.57
2023-01-25T22:03:18.088Z,87.50
2023-01-25T22:05:47.280Z,89.78
2023-01-25T22:08:16.515Z,93.80
2023-01-25T22:10:45.690Z,94.68
2023-01-25T22:13:14.853Z,86.55
2023-01-25T22:15:44.097Z,87.50
2023-01-25T22:18:13.337Z,86.32
2023-01-25T22:20:42.445Z,84.95
2023-01-25T22:23:11.547Z,79.93
2023-01-25T22:25:40.696Z,93.40
2023-01-25T22:28:16.320Z,76.57
2023-01-25T22:30:45.481Z,78.55
2023-01-25T22:33:14.898Z,76.70
2023-01-25T22:35:43.971Z,74.63
2023-01-25T22:38:13.059Z,74.10
2023-01-25T22:40:42.204Z,71.18
2023-01-25T22:43:11.303Z,80.10
2023-01-25T22:45:40.480Z,78.60
2023-01-25T22:48:10.271Z,74.00
2023-01-25T22:50:39.353Z,74.50
2023-01-25T22:53:08.509Z,74.22
2023-01-25T22:55:37.695Z,71.40
2023-01-25T22:58:06.923Z,77.03
2023-01-25T23:00:36.134Z,77.10
2023-01-25T23:03:06.050Z,80.28
2023-01-25T23:05:35.243Z,80.53
2023-01-25T23:08:04.379Z,73.28
2023-01-25T23:10:33.546Z,73.40
2023-01-25T23:13:02.664Z,83.95
2023-01-25T23:15:31.916Z,81.10
2023-01-25T23:18:20.280Z,81.93
2023-01-25T23:20:49.471Z,90.28
2023-01-25T23:23:18.703Z,76.88
2023-01-25T23:25:48.767Z,76.10
2023-01-25T23:28:18.055Z,79.28
2023-01-25T23:30:47.263Z,84.00
2023-01-25T23:33:16.494Z,85.38
2023-01-25T23:35:45.687Z,86.88
2023-01-25T23:38:17.399Z,89.53
2023-01-25T23:40:47.107Z,87.82
2023-01-25T23:43:16.279Z,104.57
2023-01-25T23:45:45.596Z,94.53
2023-01-25T23:48:14.763Z,92.25
2023-01-25T23:50:43.919Z,94.25
2023-01-25T23:53:13.206Z,102.53
2023-01-25T23:55:42.368Z,102.75
2023-01-25T23:58:11.523Z,101.95
